createdAt,value
2018-02-11T00:00:25.707Z,968.66
2018-02-11T00:01:25.755Z,968.67
2018-02-11T00:02:25.806Z,968.60
2018-02-11T00:03:25.829Z,968.63
2018-02-11T00:04:25.870Z,968.60
2018-02-11T00:05:25.910Z,968.57
2018-02-11T00:06:25.952Z,968.56
2018-02-11T00:07:26.009Z,968.58
2018-02-11T00:08:26.039Z,968.58
2018-02-11T00:09:26.075Z,968.57
2018-02-11T00:10:26.129Z,968.58
2018-02-11T00:11:26.154Z,968.57
2018-02-11T00:12:26.195Z,968.55
2018-02-11T00:13:26.241Z,968.52
2018-02-11T00:14:26.278Z,968.52
2018-02-11T00:15:26.335Z,968.51
2018-02-11T00:16:26.359Z,968.52
2018-02-11T00:17:26.410Z,968.53
2018-02-11T00:18:26.446Z,968.47
2018-02-11T00:19:26.481Z,968.46
2018-02-11T00:20:26.542Z,968.44
2018-02-11T00:21:26.564Z,968.44
2018-02-11T00:22:26.603Z,968.42
2018-02-11T00:23:26.644Z,968.43
2018-02-11T00:24:26.687Z,968.41
2018-02-11T00:25:26.743Z,968.40
2018-02-11T00:26:26.772Z,968.41
2018-02-11T00:27:26.807Z,968.44
2018-02-11T00:28:26.919Z,968.45
2018-02-11T00:29:26.894Z,968.44
2018-02-11T00:30:26.932Z,968.43
2018-02-11T00:31:26.989Z,968.42
2018-02-11T00:32:27.012Z,968.43
2018-02-11T00:33:27.054Z,968.39
2018-02-11T00:34:27.113Z,968.41
2018-02-11T00:35:27.135Z,968.37
2018-02-11T00:36:27.194Z,968.36
2018-02-11T00:37:27.221Z,968.37
2018-02-11T00:38:27.277Z,968.34
2018-02-11T00:39:27.299Z,968.37
2018-02-11T00:40:27.341Z,968.32
2018-02-11T00:41:27.399Z,968.35
2018-02-11T00:42:27.425Z,968.31
2018-02-11T00:43:27.483Z,968.26
2018-02-11T00:44:27.504Z,968.28
2018-02-11T00:45:27.545Z,968.28
2018-02-11T00:46:27.614Z,968.25
2018-02-11T00:47:27.627Z,968.27
2018-02-11T00:48:27.668Z,968.26
2018-02-11T00:49:27.731Z,968.25
2018-02-11T00:50:27.750Z,968.24
2018-02-11T00:51:27.792Z,968.28
2018-02-11T00:52:27.832Z,968.26
2018-02-11T00:53:27.876Z,968.27
2018-02-11T00:54:27.932Z,968.28
2018-02-11T00:55:27.959Z,968.22
2018-02-11T00:56:27.999Z,968.23
2018-02-11T00:57:28.037Z,968.19
2018-02-11T00:58:28.078Z,968.19
2018-02-11T00:59:28.136Z,968.22
2018-02-11T01:00:28.162Z,968.22
2018-02-11T01:01:28.200Z,968.17
2018-02-11T01:02:28.239Z,968.15
2018-02-11T01:03:28.281Z,968.19
2018-02-11T01:04:28.349Z,968.17
2018-02-11T01:05:28.363Z,968.18
2018-02-11T01:06:28.405Z,968.13
2018-02-11T01:07:28.456Z,968.15
2018-02-11T01:08:28.486Z,968.13
2018-02-11T01:09:28.546Z,968.12
2018-02-11T01:10:28.567Z,968.13
2018-02-11T01:11:28.612Z,968.11
2018-02-11T01:12:28.658Z,968.11
2018-02-11T01:13:28.691Z,968.12
2018-02-11T01:14:28.755Z,968.09
2018-02-11T01:15:28.773Z,968.08
2018-02-11T01:16:28.814Z,968.07
2018-02-11T01:17:28.857Z,968.07
2018-02-11T01:18:28.899Z,968.11
2018-02-11T01:19:28.952Z,968.09
2018-02-11T01:20:28.977Z,968.06
2018-02-11T01:21:29.020Z,968.05
2018-02-11T01:22:29.062Z,968.02
2018-02-11T01:23:29.102Z,968.03
2018-02-11T01:24:29.163Z,968.00
2018-02-11T01:25:29.183Z,968.00
2018-02-11T01:26:29.224Z,967.98
2018-02-11T01:27:29.263Z,967.96
2018-02-11T01:28:29.321Z,967.99
2018-02-11T01:29:29.346Z,967.93
2018-02-11T01:30:29.385Z,967.97
2018-02-11T01:31:29.425Z,967.97
2018-02-11T01:32:29.468Z,967.94
2018-02-11T01:33:29.522Z,967.97
2018-02-11T01:34:29.548Z,967.94
2018-02-11T01:35:29.590Z,967.93
2018-02-11T01:36:29.647Z,967.97
2018-02-11T01:37:29.670Z,967.93
2018-02-11T01:38:29.719Z,967.89
2018-02-11T01:39:29.754Z,967.93
2018-02-11T01:40:29.796Z,967.86
2018-02-11T01:41:29.857Z,967.85
2018-02-11T01:42:29.876Z,967.84
2018-02-11T01:43:29.915Z,967.83
2018-02-11T01:44:29.958Z,967.82
2018-02-11T01:45:29.997Z,967.81
2018-02-11T01:46:30.058Z,967.81
2018-02-11T01:47:30.084Z,967.82
2018-02-11T01:48:30.121Z,967.76
2018-02-11T01:49:30.162Z,967.76
2018-02-11T01:50:30.211Z,967.77
2018-02-11T01:51:30.257Z,967.74
2018-02-11T01:52:30.286Z,967.74
2018-02-11T01:53:30.323Z,967.69
2018-02-11T01:54:30.365Z,967.76
2018-02-11T01:55:30.406Z,967.74
2018-02-11T01:56:30.468Z,967.73
2018-02-11T01:57:30.489Z,967.67
2018-02-11T01:58:30.530Z,967.65
2018-02-11T01:59:30.576Z,967.62
2018-02-11T02:00:30.609Z,967.61
2018-02-11T02:01:30.666Z,967.61
2018-02-11T02:02:30.693Z,967.55
2018-02-11T02:03:30.732Z,967.52
2018-02-11T02:04:30.775Z,967.52
2018-02-11T02:05:30.816Z,967.51
2018-02-11T02:06:30.887Z,967.46
2018-02-11T02:07:30.894Z,967.44
2018-02-11T02:08:30.950Z,967.50
2018-02-11T02:09:30.974Z,967.44
2018-02-11T02:10:31.017Z,967.41
2018-02-11T02:11:31.078Z,967.40
2018-02-11T02:12:31.099Z,967.43
2018-02-11T02:13:31.141Z,967.36
2018-02-11T02:14:31.181Z,967.38
2018-02-11T02:15:31.224Z,967.38
2018-02-11T02:16:31.279Z,967.26
2018-02-11T02:17:31.322Z,967.26
2018-02-11T02:18:31.344Z,967.29
2018-02-11T02:19:31.382Z,967.25
2018-02-11T02:20:31.424Z,967.21
2018-02-11T02:21:31.480Z,967.21
2018-02-11T02:22:31.506Z,967.16
2018-02-11T02:23:31.562Z,967.14
2018-02-11T02:24:31.587Z,967.14
2018-02-11T02:25:31.631Z,967.12
2018-02-11T02:26:31.673Z,967.08
2018-02-11T02:27:31.716Z,967.07
2018-02-11T02:28:31.765Z,967.03
2018-02-11T02:29:31.791Z,966.99
2018-02-11T02:30:31.835Z,966.95
2018-02-11T02:31:31.873Z,966.91
2018-02-11T02:32:31.913Z,966.88
2018-02-11T02:33:31.972Z,966.88
2018-02-11T02:34:31.995Z,966.83
2018-02-11T02:35:32.037Z,966.83
2018-02-11T02:36:32.081Z,966.79
2018-02-11T02:37:32.117Z,966.81
2018-02-11T02:38:32.174Z,966.80
2018-02-11T02:39:32.197Z,966.74
2018-02-11T02:40:32.254Z,966.71
2018-02-11T02:41:32.280Z,966.70
2018-02-11T02:42:32.321Z,966.71
2018-02-11T02:43:32.360Z,966.70
2018-02-11T02:44:32.403Z,966.66
2018-02-11T02:45:32.457Z,966.69
2018-02-11T02:46:32.483Z,966.69
2018-02-11T02:47:32.523Z,966.64
2018-02-11T02:48:32.565Z,966.62
2018-02-11T02:49:32.605Z,966.64
2018-02-11T02:50:32.665Z,966.64
2018-02-11T02:51:32.685Z,966.62
2018-02-11T02:52:32.726Z,966.58
2018-02-11T02:53:32.768Z,966.58
2018-02-11T02:54:32.806Z,966.56
2018-02-11T02:55:32.862Z,966.57
2018-02-11T02:56:32.888Z,966.54
2018-02-11T02:57:32.928Z,966.54
2018-02-11T02:58:32.968Z,966.52
2018-02-11T02:59:33.009Z,966.49
2018-02-11T03:00:33.070Z,966.49
2018-02-11T03:01:33.089Z,966.43
2018-02-11T03:02:33.134Z,966.45
2018-02-11T03:03:33.171Z,966.48
2018-02-11T03:04:33.211Z,966.48
2018-02-11T03:05:33.269Z,966.46
2018-02-11T03:06:33.291Z,966.48
2018-02-11T03:07:33.331Z,966.42
2018-02-11T03:08:33.374Z,966.45
2018-02-11T03:09:33.414Z,966.41
2018-02-11T03:10:33.482Z,966.38
2018-02-11T03:11:33.498Z,966.39
2018-02-11T03:12:33.532Z,966.38
2018-02-11T03:13:33.573Z,966.36
2018-02-11T03:14:33.615Z,966.35
2018-02-11T03:15:33.673Z,966.36
2018-02-11T03:16:33.695Z,966.33
2018-02-11T03:17:33.737Z,966.31
2018-02-11T03:18:33.782Z,966.38
2018-02-11T03:19:33.818Z,966.39
2018-02-11T03:20:33.879Z,966.38
2018-02-11T03:21:33.894Z,966.38
2018-02-11T03:22:33.942Z,966.40
2018-02-11T03:23:33.980Z,966.38
2018-02-11T03:24:34.035Z,966.35
2018-02-11T03:25:34.064Z,966.28
2018-02-11T03:26:34.102Z,966.24
2018-02-11T03:27:34.138Z,966.21
2018-02-11T03:28:34.177Z,966.23
2018-02-11T03:29:34.236Z,966.22
2018-02-11T03:30:34.259Z,966.18
2018-02-11T03:31:34.318Z,966.14
2018-02-11T03:32:34.341Z,966.11
2018-02-11T03:33:34.384Z,966.12
2018-02-11T03:34:34.419Z,966.13
2018-02-11T03:35:34.482Z,966.13
2018-02-11T03:36:34.498Z,966.10
2018-02-11T03:37:34.540Z,966.07
2018-02-11T03:38:34.581Z,966.05
2018-02-11T03:39:34.620Z,966.06
2018-02-11T03:40:34.683Z,966.03
2018-02-11T03:41:34.716Z,966.05
2018-02-11T03:42:34.740Z,966.04
2018-02-11T03:43:34.781Z,966.11
2018-02-11T03:44:34.824Z,966.09
2018-02-11T03:45:34.861Z,966.09
2018-02-11T03:46:34.918Z,966.13
2018-02-11T03:47:34.940Z,966.13
2018-02-11T03:48:34.984Z,966.15
2018-02-11T03:49:35.021Z,966.16
2018-02-11T03:50:35.061Z,966.14
2018-02-11T03:51:35.126Z,966.09
2018-02-11T03:52:35.156Z,966.13
2018-02-11T03:53:35.185Z,966.12
2018-02-11T03:54:35.223Z,966.11
2018-02-11T03:55:35.261Z,966.12
2018-02-11T03:56:35.308Z,966.14
2018-02-11T03:57:35.357Z,966.17
2018-02-11T03:58:35.386Z,966.16
2018-02-11T03:59:35.421Z,966.18
2018-02-11T04:00:35.464Z,966.13
2018-02-11T04:01:35.502Z,966.19
2018-02-11T04:02:35.557Z,966.15
2018-02-11T04:03:35.582Z,966.11
2018-02-11T04:04:35.624Z,966.13
2018-02-11T04:05:35.666Z,966.11
2018-02-11T04:06:35.701Z,966.06
2018-02-11T04:07:35.756Z,966.01
2018-02-11T04:08:35.782Z,965.99
2018-02-11T04:09:35.837Z,965.93
2018-02-11T04:10:35.861Z,965.88
2018-02-11T04:11:35.903Z,965.90
2018-02-11T04:12:35.946Z,965.87
2018-02-11T04:13:35.983Z,965.87
2018-02-11T04:14:36.039Z,965.88
2018-02-11T04:15:36.060Z,965.86
2018-02-11T04:16:36.103Z,965.82
2018-02-11T04:17:36.142Z,965.84
2018-02-11T04:18:36.182Z,965.78
2018-02-11T04:19:36.240Z,965.73
2018-02-11T04:20:36.265Z,965.72
2018-02-11T04:21:36.311Z,965.72
2018-02-11T04:22:36.342Z,965.67
2018-02-11T04:23:36.384Z,965.64
2018-02-11T04:24:36.451Z,965.64
2018-02-11T04:25:36.464Z,965.63
2018-02-11T04:26:36.506Z,965.62
2018-02-11T04:27:36.542Z,965.65
2018-02-11T04:28:36.587Z,965.67
2018-02-11T04:29:36.641Z,965.66
2018-02-11T04:30:36.664Z,965.67
2018-02-11T04:31:36.701Z,965.65
2018-02-11T04:32:36.742Z,965.63
2018-02-11T04:33:36.781Z,965.59
2018-02-11T04:34:36.844Z,965.61
2018-02-11T04:35:36.861Z,965.60
2018-02-11T04:36:36.902Z,965.61
2018-02-11T04:37:36.946Z,965.61
2018-02-11T04:38:36.984Z,965.63
2018-02-11T04:39:37.045Z,965.54
2018-02-11T04:40:37.061Z,965.55
2018-02-11T04:41:37.101Z,965.58
2018-02-11T04:42:37.141Z,965.54
2018-02-11T04:43:37.178Z,965.52
2018-02-11T04:44:37.242Z,965.52
2018-02-11T04:45:37.263Z,965.44
2018-02-11T04:46:37.300Z,965.45
2018-02-11T04:47:37.340Z,965.46
2018-02-11T04:48:37.383Z,965.47
2018-02-11T04:49:37.438Z,965.47
2018-02-11T04:50:37.460Z,965.45
2018-02-11T04:51:37.499Z,965.50
2018-02-11T04:52:37.546Z,965.55
2018-02-11T04:53:37.579Z,965.55
2018-02-11T04:54:37.637Z,965.50
2018-02-11T04:55:37.659Z,965.50
2018-02-11T04:56:37.700Z,965.51
2018-02-11T04:57:37.742Z,965.49
2018-02-11T04:58:37.795Z,965.47
2018-02-11T04:59:37.820Z,965.46
2018-02-11T05:00:37.858Z,965.45
2018-02-11T05:01:37.917Z,965.44
2018-02-11T05:02:37.941Z,965.39
2018-02-11T05:03:37.976Z,965.39
2018-02-11T05:04:38.019Z,965.44
2018-02-11T05:05:38.056Z,965.44
2018-02-11T05:06:38.113Z,965.44
2018-02-11T05:07:38.136Z,965.38
2018-02-11T05:08:38.177Z,965.38
2018-02-11T05:09:38.232Z,965.44
2018-02-11T05:10:38.258Z,965.39
2018-02-11T05:11:38.296Z,965.37
2018-02-11T05:12:38.337Z,965.38
2018-02-11T05:13:38.384Z,965.36
2018-02-11T05:14:38.432Z,965.40
2018-02-11T05:15:38.475Z,965.38
2018-02-11T05:16:38.496Z,965.42
2018-02-11T05:17:38.535Z,965.43
2018-02-11T05:18:38.576Z,965.46
2018-02-11T05:19:38.615Z,965.43
2018-02-11T05:20:38.670Z,965.43
2018-02-11T05:21:38.697Z,965.41
2018-02-11T05:22:38.733Z,965.39
2018-02-11T05:23:38.774Z,965.35
2018-02-11T05:24:38.813Z,965.37
2018-02-11T05:25:38.874Z,965.31
2018-02-11T05:26:38.895Z,965.32
2018-02-11T05:27:38.932Z,965.29
2018-02-11T05:28:38.974Z,965.30
2018-02-11T05:29:39.023Z,965.26
2018-02-11T05:30:39.072Z,965.24
2018-02-11T05:31:39.092Z,965.21
2018-02-11T05:32:39.135Z,965.21
2018-02-11T05:33:39.174Z,965.15
2018-02-11T05:34:39.214Z,965.17
2018-02-11T05:35:39.273Z,965.16
2018-02-11T05:36:39.295Z,965.16
2018-02-11T05:37:39.337Z,965.16
2018-02-11T05:38:39.375Z,965.16
2018-02-11T05:39:39.414Z,965.15
2018-02-11T05:40:39.469Z,965.19
2018-02-11T05:41:39.493Z,965.21
2018-02-11T05:42:39.550Z,965.18
2018-02-11T05:43:39.574Z,965.20
2018-02-11T05:44:39.616Z,965.17
2018-02-11T05:45:39.661Z,965.19
2018-02-11T05:46:39.711Z,965.17
2018-02-11T05:47:39.753Z,965.14
2018-02-11T05:48:39.775Z,965.14
2018-02-11T05:49:39.820Z,965.14
2018-02-11T05:50:39.858Z,965.13
2018-02-11T05:51:39.895Z,965.11
2018-02-11T05:52:39.956Z,965.12
2018-02-11T05:53:39.977Z,965.10
2018-02-11T05:54:40.016Z,965.05
2018-02-11T05:55:40.057Z,965.00
2018-02-11T05:56:40.869Z,964.97
2018-02-11T05:57:40.156Z,964.98
2018-02-11T05:58:40.193Z,965.00
2018-02-11T05:59:40.219Z,964.99
2018-02-11T06:00:40.256Z,964.96
2018-02-11T06:01:40.305Z,964.97
2018-02-11T06:02:40.338Z,964.96
2018-02-11T06:03:40.396Z,964.97
2018-02-11T06:04:40.419Z,964.98
2018-02-11T06:05:40.461Z,964.97
2018-02-11T06:06:40.498Z,965.01
2018-02-11T06:07:40.536Z,964.95
2018-02-11T06:08:40.593Z,964.95
2018-02-11T06:09:40.620Z,964.91
2018-02-11T06:10:40.662Z,964.93
2018-02-11T06:11:40.700Z,964.87
2018-02-11T06:12:40.775Z,964.91
2018-02-11T06:15:17.235Z,964.86
2018-02-11T06:16:17.262Z,964.88
2018-02-11T06:17:17.297Z,964.85
2018-02-11T06:18:17.337Z,964.80
2018-02-11T06:19:17.395Z,964.79
2018-02-11T06:20:17.418Z,964.81
2018-02-11T06:21:17.456Z,964.81
2018-02-11T06:22:17.499Z,964.81
2018-02-11T06:23:17.537Z,964.74
2018-02-11T06:24:17.594Z,964.81
2018-02-11T06:25:17.639Z,964.76
2018-02-11T06:26:17.657Z,964.78
2018-02-11T06:27:17.697Z,964.81
2018-02-11T06:28:17.744Z,964.80
2018-02-11T06:29:17.779Z,964.83
2018-02-11T06:30:17.834Z,964.82
2018-02-11T06:31:17.861Z,964.82
2018-02-11T06:32:17.903Z,964.81
2018-02-11T06:33:17.939Z,964.80
2018-02-11T06:34:17.983Z,964.79
2018-02-11T06:35:18.043Z,964.85
2018-02-11T06:36:18.059Z,964.82
2018-02-11T06:37:18.098Z,964.84
2018-02-11T06:38:18.142Z,964.84
2018-02-11T06:39:18.178Z,964.86
2018-02-11T06:40:18.239Z,964.89
2018-02-11T06:41:18.277Z,964.85
2018-02-11T06:42:18.299Z,964.85
2018-02-11T06:43:18.338Z,964.88
2018-02-11T06:44:18.379Z,964.86
2018-02-11T06:45:18.418Z,964.87
2018-02-11T06:46:18.476Z,964.90
2018-02-11T06:47:18.499Z,964.96
2018-02-11T06:48:18.542Z,964.99
2018-02-11T06:49:18.583Z,964.98
2018-02-11T06:50:18.616Z,964.96
2018-02-11T06:51:18.685Z,964.95
2018-02-11T06:52:18.700Z,964.92
2018-02-11T06:53:18.742Z,964.89
2018-02-11T06:54:18.793Z,964.86
2018-02-11T06:55:18.822Z,964.85
2018-02-11T06:56:18.880Z,964.83
2018-02-11T06:57:18.902Z,964.76
2018-02-11T06:58:18.946Z,964.81
2018-02-11T06:59:18.989Z,964.77
2018-02-11T07:00:19.025Z,964.77
2018-02-11T07:01:19.082Z,964.76
2018-02-11T07:02:19.105Z,964.71
2018-02-11T07:03:19.143Z,964.73
2018-02-11T07:04:19.243Z,964.69
2018-02-11T07:05:19.227Z,964.69
2018-02-11T07:06:19.284Z,964.66
2018-02-11T07:07:19.322Z,964.64
2018-02-11T07:08:19.345Z,964.64
2018-02-11T07:09:19.386Z,964.66
2018-02-11T07:10:19.426Z,964.67
2018-02-11T07:11:19.466Z,964.66
2018-02-11T07:12:19.524Z,964.70
2018-02-11T07:13:19.548Z,964.69
2018-02-11T07:14:19.588Z,964.64
2018-02-11T07:15:19.631Z,964.67
2018-02-11T07:16:19.687Z,964.65
2018-02-11T07:17:19.730Z,964.59
2018-02-11T07:18:19.751Z,964.58
2018-02-11T07:19:19.789Z,964.55
2018-02-11T07:20:19.833Z,964.54
2018-02-11T07:21:19.869Z,964.57
2018-02-11T07:22:19.928Z,964.54
2018-02-11T07:23:19.951Z,964.52
2018-02-11T07:24:20.016Z,964.50
2018-02-11T07:25:20.034Z,964.47
2018-02-11T07:26:20.072Z,964.45
2018-02-11T07:27:20.116Z,964.43
2018-02-11T07:28:20.155Z,964.40
2018-02-11T07:29:20.211Z,964.38
2018-02-11T07:30:20.234Z,964.37
2018-02-11T07:31:20.275Z,964.35
2018-02-11T07:32:20.317Z,964.31
2018-02-11T07:33:20.373Z,964.28
2018-02-11T07:34:20.399Z,964.32
2018-02-11T07:35:20.440Z,964.27
2018-02-11T07:36:20.493Z,964.28
2018-02-11T07:37:20.520Z,964.22
2018-02-11T07:38:20.560Z,964.25
2018-02-11T07:39:20.615Z,964.27
2018-02-11T07:40:20.639Z,964.26
2018-02-11T07:41:20.678Z,964.27
2018-02-11T07:42:20.723Z,964.32
2018-02-11T07:43:20.765Z,964.28
2018-02-11T07:44:20.828Z,964.28
2018-02-11T07:45:20.847Z,964.20
2018-02-11T07:46:20.887Z,964.23
2018-02-11T07:47:20.927Z,964.22
2018-02-11T07:48:20.965Z,964.15
2018-02-11T07:49:21.020Z,964.21
2018-02-11T07:50:21.043Z,964.22
2018-02-11T07:51:21.096Z,964.23
2018-02-11T07:52:21.125Z,964.19
2018-02-11T07:53:21.182Z,964.21
2018-02-11T07:54:21.205Z,964.20
2018-02-11T07:55:21.262Z,964.20
2018-02-11T07:56:21.286Z,964.24
2018-02-11T07:57:21.328Z,964.25
2018-02-11T07:58:21.370Z,964.28
2018-02-11T07:59:21.408Z,964.27
2018-02-11T08:00:21.466Z,964.29
2018-02-11T08:01:21.488Z,964.25
2018-02-11T08:02:21.593Z,964.21
2018-02-11T08:03:21.568Z,964.23
2018-02-11T08:04:21.617Z,964.21
2018-02-11T08:05:21.668Z,964.14
2018-02-11T08:06:21.691Z,964.09
2018-02-11T08:07:21.733Z,964.10
2018-02-11T08:08:21.775Z,964.08
2018-02-11T08:09:21.813Z,964.09
2018-02-11T08:10:21.870Z,964.00
2018-02-11T08:11:21.912Z,964.05
2018-02-11T08:12:21.934Z,963.99
2018-02-11T08:13:21.976Z,963.97
2018-02-11T08:14:22.016Z,963.93
2018-02-11T08:15:22.057Z,963.96
2018-02-11T08:16:22.114Z,964.00
2018-02-11T08:17:22.137Z,963.99
2018-02-11T08:18:22.176Z,963.97
2018-02-11T08:19:22.220Z,964.01
2018-02-11T08:20:22.262Z,963.98
2018-02-11T08:21:22.317Z,963.92
2018-02-11T08:22:22.343Z,963.92
2018-02-11T08:23:22.382Z,963.95
2018-02-11T08:24:22.426Z,963.91
2018-02-11T08:25:22.463Z,963.89
2018-02-11T08:26:22.520Z,963.86
2018-02-11T08:27:22.562Z,963.90
2018-02-11T08:28:22.586Z,963.87
2018-02-11T08:29:22.629Z,963.92
2018-02-11T08:30:22.666Z,963.89
2018-02-11T08:31:22.712Z,963.80
2018-02-11T08:32:22.775Z,963.84
2018-02-11T08:33:22.789Z,963.83
2018-02-11T08:34:22.831Z,963.79
2018-02-11T08:35:22.872Z,963.79
2018-02-11T08:36:22.913Z,963.76
2018-02-11T08:37:22.977Z,963.75
2018-02-11T08:38:22.995Z,963.71
2018-02-11T08:39:23.034Z,963.71
2018-02-11T08:40:23.079Z,963.69
2018-02-11T08:41:23.116Z,963.68
2018-02-11T08:42:23.175Z,963.65
2018-02-11T08:43:23.203Z,963.66
2018-02-11T08:44:23.255Z,963.69
2018-02-11T08:45:23.280Z,963.60
2018-02-11T08:46:23.329Z,963.58
2018-02-11T08:47:23.385Z,963.57
2018-02-11T08:48:23.411Z,963.56
2018-02-11T08:49:23.449Z,963.56
2018-02-11T08:50:23.495Z,963.55
2018-02-11T08:51:23.528Z,963.50
2018-02-11T08:52:23.589Z,963.48
2018-02-11T08:53:23.610Z,963.50
2018-02-11T08:54:23.652Z,963.49
2018-02-11T08:55:23.696Z,963.48
2018-02-11T08:56:23.735Z,963.48
2018-02-11T08:57:23.798Z,963.45
2018-02-11T08:58:23.838Z,963.47
2018-02-11T08:59:23.861Z,963.39
2018-02-11T09:00:23.900Z,963.42
2018-02-11T09:01:23.942Z,963.44
2018-02-11T09:02:23.986Z,963.43
2018-02-11T09:03:24.042Z,963.46
2018-02-11T09:04:24.067Z,963.45
2018-02-11T09:05:24.114Z,963.43
2018-02-11T09:06:24.152Z,963.41
2018-02-11T09:07:24.191Z,963.41
2018-02-11T09:08:24.252Z,963.38
2018-02-11T09:09:24.275Z,963.34
2018-02-11T09:10:24.317Z,963.34
2018-02-11T09:11:24.357Z,963.31
2018-02-11T09:12:24.400Z,963.32
2018-02-11T09:13:24.466Z,963.29
2018-02-11T09:14:24.490Z,963.25
2018-02-11T09:15:24.527Z,963.26
2018-02-11T09:16:24.568Z,963.20
2018-02-11T09:17:24.607Z,963.19
2018-02-11T09:18:24.672Z,963.20
2018-02-11T09:19:25.201Z,963.21
2018-02-11T09:20:24.743Z,963.26
2018-02-11T09:21:24.777Z,963.30
2018-02-11T09:22:24.819Z,963.29
2018-02-11T09:23:24.879Z,963.28
2018-02-11T09:24:24.917Z,963.27
2018-02-11T09:25:24.945Z,963.29
2018-02-11T09:26:24.986Z,963.26
2018-02-11T09:27:25.043Z,963.28
2018-02-11T09:28:25.089Z,963.28
2018-02-11T09:29:25.128Z,963.24
2018-02-11T09:30:25.158Z,963.20
2018-02-11T09:31:25.205Z,963.23
2018-02-11T09:32:25.242Z,963.18
2018-02-11T09:33:25.281Z,963.15
2018-02-11T09:34:25.350Z,963.16
2018-02-11T09:35:25.364Z,963.14
2018-02-11T09:36:25.417Z,963.12
2018-02-11T09:37:25.447Z,963.13
2018-02-11T09:38:25.492Z,963.12
2018-02-11T09:39:25.549Z,963.12
2018-02-11T09:40:25.577Z,963.12
2018-02-11T09:41:25.619Z,963.10
2018-02-11T09:42:25.664Z,963.11
2018-02-11T09:43:25.702Z,963.09
2018-02-11T09:44:25.762Z,963.08
2018-02-11T09:45:25.790Z,963.08
2018-02-11T09:46:25.827Z,963.09
2018-02-11T09:47:25.869Z,963.09
2018-02-11T09:48:25.917Z,963.08
2018-02-11T09:49:25.976Z,963.11
2018-02-11T09:50:26.504Z,963.11
2018-02-11T09:51:26.040Z,963.13
2018-02-11T09:52:26.084Z,963.12
2018-02-11T09:53:26.123Z,963.11
2018-02-11T09:54:26.193Z,963.07
2018-02-11T09:55:26.208Z,963.04
2018-02-11T09:56:26.250Z,963.08
2018-02-11T09:57:26.292Z,963.07
2018-02-11T09:58:26.350Z,963.07
2018-02-11T09:59:26.382Z,963.07
2018-02-11T10:00:26.439Z,963.07
2018-02-11T10:01:26.464Z,963.06
2018-02-11T10:02:26.505Z,963.06
2018-02-11T10:03:26.556Z,963.05
2018-02-11T10:04:26.592Z,963.05
2018-02-11T10:05:26.652Z,962.97
2018-02-11T10:06:26.679Z,962.96
2018-02-11T10:07:26.723Z,962.93
2018-02-11T10:08:26.768Z,962.88
2018-02-11T10:09:26.809Z,962.85
2018-02-11T10:10:26.914Z,962.84
2018-02-11T10:11:26.893Z,962.87
2018-02-11T10:12:26.938Z,962.85
2018-02-11T10:13:26.979Z,962.83
2018-02-11T10:14:27.020Z,962.85
2018-02-11T10:15:27.081Z,962.83
2018-02-11T10:16:27.136Z,962.82
2018-02-11T10:17:27.149Z,962.88
2018-02-11T10:18:27.193Z,962.84
2018-02-11T10:19:27.248Z,962.81
2018-02-11T10:20:27.294Z,962.73
2018-02-11T10:21:27.324Z,962.74
2018-02-11T10:22:27.369Z,962.73
2018-02-11T10:23:27.409Z,962.75
2018-02-11T10:24:27.456Z,962.76
2018-02-11T10:25:27.530Z,962.80
2018-02-11T10:26:27.536Z,962.84
2018-02-11T10:27:27.617Z,962.84
2018-02-11T10:28:27.629Z,962.86
2018-02-11T10:29:27.667Z,962.83
2018-02-11T10:30:27.724Z,962.86
2018-02-11T10:31:27.752Z,962.80
2018-02-11T10:32:27.812Z,962.83
2018-02-11T10:33:27.838Z,962.83
2018-02-11T10:34:27.885Z,962.81
2018-02-11T10:35:27.924Z,962.80
2018-02-11T10:36:27.976Z,962.83
2018-02-11T10:37:28.026Z,962.78
2018-02-11T10:38:28.056Z,962.79
2018-02-11T10:39:28.106Z,962.78
2018-02-11T10:40:28.142Z,962.75
2018-02-11T10:41:28.183Z,962.73
2018-02-11T10:42:28.250Z,962.76
2018-02-11T10:43:28.327Z,962.73
2018-02-11T10:44:28.311Z,962.71
2018-02-11T10:45:28.358Z,962.66
2018-02-11T10:46:28.400Z,962.64
2018-02-11T10:47:28.465Z,962.66
2018-02-11T10:48:28.486Z,962.60
2018-02-11T10:49:28.532Z,962.57
2018-02-11T10:50:28.573Z,962.56
2018-02-11T10:51:28.618Z,962.59
2018-02-11T10:52:28.674Z,962.58
2018-02-11T10:53:28.702Z,962.57
2018-02-11T10:54:28.746Z,962.57
2018-02-11T10:55:28.811Z,962.52
2018-02-11T10:56:28.832Z,962.53
2018-02-11T10:57:28.901Z,962.53
2018-02-11T10:58:28.919Z,962.54
2018-02-11T10:59:28.968Z,962.51
2018-02-11T11:00:29.026Z,962.48
2018-02-11T11:01:29.055Z,962.49
2018-02-11T11:02:29.091Z,962.49
2018-02-11T11:03:29.144Z,962.42
2018-02-11T11:04:29.180Z,962.40
2018-02-11T11:05:29.241Z,962.42
2018-02-11T11:06:29.264Z,962.36
2018-02-11T11:07:29.307Z,962.37
2018-02-11T11:08:29.350Z,962.40
2018-02-11T11:09:29.396Z,962.37
2018-02-11T11:10:29.454Z,962.36
2018-02-11T11:11:29.482Z,962.39
2018-02-11T11:12:29.523Z,962.39
2018-02-11T11:13:29.565Z,962.41
2018-02-11T11:14:29.611Z,962.46
2018-02-11T11:15:29.668Z,962.45
2018-02-11T11:16:29.708Z,962.45
2018-02-11T11:17:29.757Z,962.45
2018-02-11T11:18:29.782Z,962.52
2018-02-11T11:19:29.826Z,962.44
2018-02-11T11:20:29.871Z,962.45
2018-02-11T11:21:29.911Z,962.47
2018-02-11T11:22:29.970Z,962.50
2018-02-11T11:23:29.999Z,962.48
2018-02-11T11:24:30.040Z,962.47
2018-02-11T11:25:30.082Z,962.42
2018-02-11T11:26:30.127Z,962.44
2018-02-11T11:27:30.188Z,962.41
2018-02-11T11:28:30.214Z,962.42
2018-02-11T11:29:30.286Z,962.44
2018-02-11T11:30:30.299Z,962.46
2018-02-11T11:31:30.345Z,962.47
2018-02-11T11:32:30.387Z,962.43
2018-02-11T11:33:30.428Z,962.42
2018-02-11T11:34:30.491Z,962.40
2018-02-11T11:35:30.514Z,962.37
2018-02-11T11:36:30.559Z,962.36
2018-02-11T11:37:30.599Z,962.34
2018-02-11T11:38:30.642Z,962.36
2018-02-11T11:39:30.706Z,962.35
2018-02-11T11:40:30.735Z,962.38
2018-02-11T11:41:30.772Z,962.32
2018-02-11T11:42:30.815Z,962.32
2018-02-11T11:43:30.859Z,962.31
2018-02-11T11:44:30.952Z,962.31
2018-02-11T11:45:30.960Z,962.28
2018-02-11T11:46:30.996Z,962.28
2018-02-11T11:47:31.028Z,962.27
2018-02-11T11:48:31.078Z,962.26
2018-02-11T11:49:31.143Z,962.24
2018-02-11T11:50:31.180Z,962.34
2018-02-11T11:51:31.200Z,962.39
2018-02-11T11:52:31.246Z,962.39
2018-02-11T11:53:31.298Z,962.39
2018-02-11T11:54:31.328Z,962.38
2018-02-11T11:55:31.402Z,962.36
2018-02-11T11:56:31.415Z,962.31
2018-02-11T11:57:31.466Z,962.25
2018-02-11T11:58:31.501Z,962.19
2018-02-11T11:59:31.544Z,962.25
2018-02-11T12:00:31.605Z,962.23
2018-02-11T12:01:31.630Z,962.20
2018-02-11T12:02:31.684Z,962.20
2018-02-11T12:03:31.738Z,962.20
2018-02-11T12:04:31.758Z,962.26
2018-02-11T12:05:31.817Z,962.25
2018-02-11T12:06:31.863Z,962.20
2018-02-11T12:07:31.886Z,962.23
2018-02-11T12:08:31.930Z,962.19
2018-02-11T12:09:31.979Z,962.18
2018-02-11T12:10:32.016Z,962.13
2018-02-11T12:11:32.078Z,962.12
2018-02-11T12:12:32.101Z,962.13
2018-02-11T12:13:32.148Z,962.11
2018-02-11T12:14:32.188Z,962.10
2018-02-11T12:15:32.230Z,962.16
2018-02-11T12:16:32.288Z,962.09
2018-02-11T12:17:32.333Z,962.08
2018-02-11T12:18:32.359Z,962.07
2018-02-11T12:19:32.401Z,962.10
2018-02-11T12:20:32.446Z,962.07
2018-02-11T12:21:32.489Z,962.05
2018-02-11T12:22:32.543Z,962.00
2018-02-11T12:23:32.574Z,962.04
2018-02-11T12:24:32.618Z,962.01
2018-02-11T12:25:32.660Z,961.96
2018-02-11T12:26:32.700Z,961.95
2018-02-11T12:27:32.767Z,961.93
2018-02-11T12:28:32.790Z,961.92
2018-02-11T12:29:32.834Z,961.93
2018-02-11T12:30:32.882Z,961.89